createdAt,value
2022-09-26T00:02:22.194Z,31.46
2022-09-26T00:04:48.988Z,31.01
2022-09-26T00:07:15.986Z,31.14
2022-09-26T00:09:42.732Z,30.62
2022-09-26T00:12:09.647Z,30.95
2022-09-26T00:14:36.425Z,30.82
2022-09-26T00:17:03.389Z,30.75
2022-09-26T00:19:30.227Z,30.39
2022-09-26T00:21:57.024Z,30.53
2022-09-26T00:24:23.875Z,30.66
2022-09-26T00:26:50.686Z,30.86
2022-09-26T00:29:17.502Z,30.57
2022-09-26T00:31:46.142Z,30.52
2022-09-26T00:34:15.160Z,30.59
2022-09-26T00:36:42.184Z,30.71
2022-09-26T00:39:10.975Z,30.22
2022-09-26T00:41:38.532Z,30.89
2022-09-26T00:44:41.718Z,30.62
2022-09-26T00:47:26.532Z,30.48
2022-09-26T00:49:58.834Z,30.58
2022-09-26T00:52:33.413Z,30.88
2022-09-26T00:55:03.831Z,30.64
2022-09-26T00:57:41.516Z,30.82
2022-09-26T01:00:10.850Z,30.46
2022-09-26T01:02:38.235Z,31.01
2022-09-26T01:05:07.404Z,31.51
2022-09-26T01:07:35.261Z,32.23
2022-09-26T01:10:05.168Z,31.94
2022-09-26T01:12:32.316Z,32.40
2022-09-26T01:14:59.341Z,32.67
2022-09-26T01:17:27.632Z,32.50
2022-09-26T01:19:57.052Z,32.57
2022-09-26T01:22:57.925Z,31.90
2022-09-26T01:25:40.494Z,32.12
2022-09-26T01:28:29.555Z,31.54
2022-09-26T01:31:26.151Z,31.50
2022-09-26T01:34:08.114Z,31.60
2022-09-26T01:36:50.825Z,31.40
2022-09-26T01:39:33.512Z,32.27
2022-09-26T01:42:11.875Z,32.75
2022-09-26T01:45:01.363Z,33.29
2022-09-26T01:47:37.801Z,33.36
2022-09-26T01:50:14.150Z,33.08
2022-09-26T01:53:04.003Z,33.04
2022-09-26T01:55:41.443Z,33.60
2022-09-26T01:58:14.118Z,33.23
2022-09-26T02:00:45.449Z,33.54
2022-09-26T02:03:18.251Z,34.03
2022-09-26T02:06:08.105Z,34.97
2022-09-26T02:08:44.486Z,34.87
2022-09-26T02:11:17.131Z,34.82
2022-09-26T02:13:55.723Z,34.81
2022-09-26T02:16:31.287Z,34.89
2022-09-26T02:19:06.524Z,34.68
2022-09-26T02:21:33.331Z,34.12
2022-09-26T02:24:00.116Z,34.75
2022-09-26T02:26:27.018Z,34.40
2022-09-26T02:28:53.722Z,35.14
2022-09-26T02:31:24.914Z,35.57
2022-09-26T02:33:53.646Z,35.72
2022-09-26T02:36:21.302Z,34.92
2022-09-26T02:38:48.319Z,35.30
2022-09-26T02:41:30.138Z,35.57
2022-09-26T02:44:14.707Z,35.67
2022-09-26T02:47:07.650Z,34.58
2022-09-26T02:49:53.062Z,35.30
2022-09-26T02:52:50.213Z,36.21
2022-09-26T02:55:39.312Z,35.21
2022-09-26T02:58:21.084Z,35.35
2022-09-26T03:01:08.033Z,35.85
2022-09-26T03:03:47.714Z,34.89
2022-09-26T03:06:18.951Z,34.50
2022-09-26T03:08:49.488Z,34.90
2022-09-26T03:11:21.273Z,33.80
2022-09-26T03:13:50.824Z,34.86
2022-09-26T03:16:18.145Z,35.00
2022-09-26T03:18:52.357Z,35.86
2022-09-26T03:21:19.217Z,36.12
2022-09-26T03:23:46.239Z,36.41
2022-09-26T03:26:22.323Z,36.24
2022-09-26T03:28:49.044Z,36.25
2022-09-26T03:31:16.024Z,36.60
2022-09-26T03:33:42.868Z,36.20
2022-09-26T03:36:09.629Z,34.87
2022-09-26T03:38:36.480Z,34.62
2022-09-26T03:41:03.397Z,35.41
2022-09-26T03:43:30.243Z,35.92
2022-09-26T03:45:57.574Z,35.77
2022-09-26T03:48:24.530Z,36.90
2022-09-26T03:50:51.352Z,36.31
2022-09-26T03:53:18.315Z,37.04
2022-09-26T03:55:45.049Z,37.29
2022-09-26T03:58:11.790Z,33.52
2022-09-26T04:00:39.753Z,32.98
2022-09-26T04:03:06.699Z,31.62
2022-09-26T04:05:33.365Z,31.23
2022-09-26T04:08:00.148Z,31.42
2022-09-26T04:10:26.941Z,29.79
2022-09-26T04:12:53.635Z,30.51
2022-09-26T04:15:20.637Z,30.16
2022-09-26T04:17:47.404Z,30.56
2022-09-26T04:20:14.289Z,30.06
2022-09-26T04:22:41.166Z,29.98
2022-09-26T04:25:08.389Z,29.62
2022-09-26T04:27:35.132Z,29.82
2022-09-26T04:30:02.308Z,29.98
2022-09-26T04:32:28.998Z,29.41
2022-09-26T04:34:55.753Z,29.26
2022-09-26T04:37:22.507Z,29.21
2022-09-26T04:39:49.287Z,29.54
2022-09-26T04:42:16.051Z,29.76
2022-09-26T04:44:42.829Z,29.06
2022-09-26T04:47:09.676Z,28.58
2022-09-26T04:49:36.427Z,28.95
2022-09-26T04:52:03.241Z,28.90
2022-09-26T04:54:30.067Z,28.63
2022-09-26T04:57:00.349Z,28.73
2022-09-26T04:59:27.334Z,28.36
2022-09-26T05:01:54.141Z,28.31
2022-09-26T05:04:23.970Z,27.82
2022-09-26T05:06:54.879Z,28.16
2022-09-26T05:09:21.649Z,27.62
2022-09-26T05:11:49.485Z,27.95
2022-09-26T05:14:16.316Z,27.66
2022-09-26T05:16:43.181Z,27.77
2022-09-26T05:19:10.031Z,28.02
2022-09-26T05:21:37.006Z,28.09
2022-09-26T05:24:03.898Z,27.97
2022-09-26T05:26:44.736Z,28.27
2022-09-26T05:29:12.331Z,28.61
2022-09-26T05:31:39.930Z,28.30
2022-09-26T05:34:09.307Z,28.46
2022-09-26T05:36:36.908Z,28.30
2022-09-26T05:39:06.985Z,28.20
2022-09-26T05:41:34.095Z,28.27
2022-09-26T05:44:01.097Z,27.74
2022-09-26T05:46:27.889Z,27.68
2022-09-26T05:48:55.430Z,27.15
2022-09-26T05:51:22.540Z,27.25
2022-09-26T05:53:49.834Z,27.12
2022-09-26T05:56:19.272Z,27.35
2022-09-26T05:58:46.302Z,27.36
2022-09-26T06:01:15.682Z,27.34
2022-09-26T06:03:44.857Z,27.81
2022-09-26T06:06:16.518Z,27.26
2022-09-26T06:08:44.821Z,26.89
2022-09-26T06:11:14.383Z,27.05
2022-09-26T06:13:42.490Z,27.08
2022-09-26T06:16:12.723Z,26.91
2022-09-26T06:18:39.973Z,27.12
2022-09-26T06:21:08.706Z,27.29
2022-09-26T06:23:36.298Z,26.96
2022-09-26T06:26:05.223Z,26.79
2022-09-26T06:28:31.918Z,27.29
2022-09-26T06:30:58.763Z,27.16
2022-09-26T06:33:27.706Z,27.59
2022-09-26T06:36:06.641Z,27.13
2022-09-26T06:38:34.254Z,27.60
2022-09-26T06:41:01.568Z,26.87
2022-09-26T06:43:28.628Z,26.85
2022-09-26T06:45:55.382Z,27.31
2022-09-26T06:48:24.513Z,27.10
2022-09-26T06:50:56.385Z,26.74
2022-09-26T06:53:23.487Z,26.77
2022-09-26T06:55:50.426Z,25.62
2022-09-26T06:58:17.422Z,25.80
2022-09-26T07:00:44.542Z,25.29
2022-09-26T07:03:11.542Z,24.88
2022-09-26T07:05:38.484Z,24.63
2022-09-26T07:08:05.314Z,24.06
2022-09-26T07:10:32.025Z,24.21
2022-09-26T07:13:03.520Z,23.96
2022-09-26T07:15:31.083Z,23.21
2022-09-26T07:17:57.758Z,23.54
2022-09-26T07:20:24.599Z,23.32
2022-09-26T07:22:51.427Z,24.35
2022-09-26T07:25:18.274Z,23.16
2022-09-26T07:27:50.363Z,22.70
2022-09-26T07:30:17.273Z,23.06
2022-09-26T07:32:43.989Z,23.09
2022-09-26T07:35:10.971Z,23.18
2022-09-26T07:37:37.652Z,22.66
2022-09-26T07:40:04.737Z,22.26
2022-09-26T07:42:31.828Z,22.23
2022-09-26T07:45:24.283Z,22.64
2022-09-26T07:47:45.757Z,21.86
2022-09-26T07:50:12.528Z,21.60
2022-09-26T07:52:43.933Z,21.46
2022-09-26T07:55:16.900Z,21.19
2022-09-26T07:57:43.783Z,20.88
2022-09-26T08:00:13.896Z,20.72
2022-09-26T08:02:42.488Z,21.26
2022-09-26T08:05:11.031Z,20.23
2022-09-26T08:07:38.499Z,20.58
2022-09-26T08:10:07.737Z,20.44
2022-09-26T08:12:38.748Z,20.41
2022-09-26T08:15:08.146Z,20.09
2022-09-26T08:17:35.187Z,19.92
2022-09-26T08:20:02.276Z,20.07
2022-09-26T08:22:29.376Z,19.54
2022-09-26T08:24:56.048Z,19.43
2022-09-26T08:27:23.054Z,19.22
2022-09-26T08:29:51.087Z,19.34
2022-09-26T08:32:19.644Z,19.51
2022-09-26T08:34:47.138Z,19.69
2022-09-26T08:37:14.894Z,19.69
2022-09-26T08:39:41.590Z,19.44
2022-09-26T08:42:10.936Z,19.46
2022-09-26T08:45:03.936Z,19.39
2022-09-26T08:47:45.385Z,19.60
2022-09-26T08:50:12.139Z,18.98
2022-09-26T08:53:12.758Z,19.00
2022-09-26T08:55:45.345Z,18.96
2022-09-26T08:58:19.140Z,18.60
2022-09-26T09:00:49.554Z,17.60
2022-09-26T09:03:33.259Z,17.35
2022-09-26T09:06:13.712Z,17.87
2022-09-26T09:08:44.681Z,16.43
2022-09-26T09:11:17.241Z,15.55
2022-09-26T09:14:01.840Z,15.98
2022-09-26T09:16:49.058Z,16.51
2022-09-26T09:19:22.656Z,16.94
2022-09-26T09:22:01.543Z,16.95
2022-09-26T09:24:59.850Z,17.16
2022-09-26T09:28:08.420Z,16.59
2022-09-26T09:30:44.298Z,16.73
2022-09-26T09:33:16.598Z,15.45
2022-09-26T09:35:49.054Z,16.04
2022-09-26T09:38:23.086Z,15.47
2022-09-26T09:41:04.520Z,15.32
2022-09-26T09:43:37.753Z,15.33
2022-09-26T09:46:12.797Z,15.43
2022-09-26T09:48:39.636Z,15.58
2022-09-26T09:51:15.601Z,15.33
2022-09-26T09:54:02.886Z,15.70
2022-09-26T09:57:13.067Z,15.23
2022-09-26T10:00:25.411Z,15.60
2022-09-26T10:03:01.116Z,15.89
2022-09-26T10:05:48.493Z,16.11
2022-09-26T10:08:20.920Z,15.45
2022-09-26T10:11:25.138Z,15.13
2022-09-26T10:13:53.331Z,15.75
2022-09-26T10:16:20.685Z,15.43
2022-09-26T10:19:00.830Z,15.31
2022-09-26T10:21:58.954Z,15.42
2022-09-26T10:24:35.628Z,15.75
2022-09-26T10:27:17.780Z,14.79
2022-09-26T10:29:45.665Z,14.81
2022-09-26T10:32:13.002Z,15.01
2022-09-26T10:34:40.002Z,15.13
2022-09-26T10:37:21.957Z,15.79
2022-09-26T10:39:56.933Z,15.73
2022-09-26T10:42:24.482Z,15.85
2022-09-26T10:44:55.681Z,15.61
2022-09-26T10:47:26.150Z,15.10
2022-09-26T10:49:58.421Z,15.51
2022-09-26T10:52:43.477Z,15.78
2022-09-26T10:55:17.999Z,15.47
2022-09-26T10:58:22.196Z,16.14
2022-09-26T11:00:49.405Z,15.81
2022-09-26T11:03:32.839Z,15.00
2022-09-26T11:05:59.844Z,15.29
2022-09-26T11:08:29.857Z,14.93
2022-09-26T11:10:59.028Z,15.39
2022-09-26T11:13:38.093Z,15.40
2022-09-26T11:16:10.549Z,15.86
2022-09-26T11:19:19.829Z,16.05
2022-09-26T11:22:12.176Z,16.52
2022-09-26T11:24:49.753Z,16.72
2022-09-26T11:27:16.465Z,16.31
2022-09-26T11:30:00.728Z,16.28
2022-09-26T11:32:31.396Z,16.04
2022-09-26T11:35:02.159Z,16.58
2022-09-26T11:37:56.993Z,17.06
2022-09-26T11:41:05.839Z,16.48
2022-09-26T11:43:59.947Z,16.39
2022-09-26T11:46:57.282Z,16.42
2022-09-26T11:50:01.267Z,15.83
2022-09-26T11:52:49.650Z,16.50
2022-09-26T11:55:30.941Z,16.41
2022-09-26T11:58:03.999Z,16.85
2022-09-26T12:00:36.427Z,17.27
2022-09-26T12:03:24.960Z,16.25
2022-09-26T12:06:03.441Z,16.29
2022-09-26T12:08:42.250Z,16.21
2022-09-26T12:11:18.961Z,16.07
2022-09-26T12:14:09.560Z,16.28
2022-09-26T12:17:09.000Z,15.90
2022-09-26T12:19:54.214Z,15.88
2022-09-26T12:22:36.358Z,16.02
2022-09-26T12:25:06.046Z,16.35
2022-09-26T12:27:49.688Z,16.58
2022-09-26T12:30:21.305Z,16.49
2022-09-26T12:32:51.118Z,16.14
2022-09-26T12:35:26.801Z,16.32
2022-09-26T12:38:20.566Z,15.56
2022-09-26T12:41:10.120Z,16.50
2022-09-26T12:43:52.966Z,15.33
2022-09-26T12:46:28.070Z,15.03
2022-09-26T12:49:16.096Z,15.73
2022-09-26T12:51:52.498Z,15.47
2022-09-26T12:54:31.593Z,15.51
2022-09-26T12:57:20.578Z,15.52
2022-09-26T13:00:04.643Z,15.89
2022-09-26T13:03:02.156Z,15.19
2022-09-26T13:05:34.640Z,15.44
2022-09-26T13:08:12.521Z,15.41
2022-09-26T13:11:08.263Z,15.45
2022-09-26T13:13:47.160Z,16.10
2022-09-26T13:16:32.586Z,15.94
2022-09-26T13:19:16.647Z,15.62
2022-09-26T13:22:02.129Z,15.19
2022-09-26T13:24:57.249Z,14.98
2022-09-26T13:27:32.783Z,15.01
2022-09-26T13:30:18.047Z,15.57
2022-09-26T13:33:10.744Z,15.50
2022-09-26T13:35:40.706Z,15.65
2022-09-26T13:38:30.824Z,15.41
2022-09-26T13:41:18.819Z,15.47
2022-09-26T13:44:19.092Z,15.24
2022-09-26T13:46:57.892Z,15.62
2022-09-26T13:49:32.953Z,15.92
2022-09-26T13:52:09.915Z,16.26
2022-09-26T13:54:45.688Z,15.38
2022-09-26T13:57:36.811Z,15.16
2022-09-26T14:00:25.537Z,15.25
2022-09-26T14:03:07.430Z,14.88
2022-09-26T14:05:43.348Z,14.49
2022-09-26T14:08:33.960Z,15.28
2022-09-26T14:11:07.248Z,15.12
2022-09-26T14:13:37.059Z,14.45
2022-09-26T14:16:30.754Z,14.02
2022-09-26T14:19:22.283Z,14.52
2022-09-26T14:22:02.218Z,14.82
2022-09-26T14:24:45.562Z,14.98
2022-09-26T14:27:12.322Z,15.35
2022-09-26T14:29:38.973Z,15.04
2022-09-26T14:32:08.812Z,14.59
2022-09-26T14:34:47.093Z,15.54
2022-09-26T14:37:22.850Z,14.57
2022-09-26T14:40:15.330Z,14.40
2022-09-26T14:42:44.831Z,14.09
2022-09-26T14:45:17.474Z,14.25
2022-09-26T14:47:45.511Z,14.44
2022-09-26T14:50:19.403Z,14.46
2022-09-26T14:52:59.887Z,14.49
2022-09-26T14:55:28.887Z,14.70
2022-09-26T14:58:16.204Z,14.95
2022-09-26T15:00:49.323Z,14.42
2022-09-26T15:03:21.441Z,14.98
2022-09-26T15:05:49.237Z,14.99
2022-09-26T15:08:28.879Z,14.98
2022-09-26T15:10:58.756Z,15.09
2022-09-26T15:13:36.934Z,15.08
2022-09-26T15:16:14.220Z,14.69
2022-09-26T15:18:46.658Z,15.32
2022-09-26T15:21:24.746Z,14.98
2022-09-26T15:23:54.129Z,15.76
2022-09-26T15:26:28.055Z,15.71
2022-09-26T15:28:57.355Z,15.86
2022-09-26T15:31:27.938Z,16.03
2022-09-26T15:34:03.439Z,16.30
2022-09-26T15:36:33.347Z,16.17
2022-09-26T15:39:02.748Z,16.13
2022-09-26T15:41:29.769Z,16.42
2022-09-26T15:44:01.486Z,16.22
2022-09-26T15:46:28.322Z,16.84
2022-09-26T15:49:04.070Z,16.48
2022-09-26T15:51:42.723Z,16.83
2022-09-26T15:54:23.133Z,16.85
2022-09-26T15:56:53.764Z,17.32
2022-09-26T15:59:40.989Z,16.58
2022-09-26T16:02:22.699Z,16.75
2022-09-26T16:04:52.841Z,17.16
2022-09-26T16:07:27.411Z,17.65
2022-09-26T16:09:55.639Z,17.32
2022-09-26T16:12:24.635Z,17.14
2022-09-26T16:14:54.095Z,17.07
2022-09-26T16:17:44.416Z,17.44
2022-09-26T16:20:17.924Z,17.17
2022-09-26T16:22:45.104Z,17.49
2022-09-26T16:25:17.683Z,17.55
2022-09-26T16:28:05.850Z,17.70
2022-09-26T16:30:32.645Z,17.68
2022-09-26T16:33:02.485Z,17.74
2022-09-26T16:35:31.612Z,17.57
2022-09-26T16:38:00.541Z,17.64
2022-09-26T16:40:29.807Z,17.53
2022-09-26T16:43:16.934Z,17.92
2022-09-26T16:45:52.357Z,18.08
2022-09-26T16:48:52.634Z,17.84
2022-09-26T16:51:27.855Z,17.63
2022-09-26T16:53:58.866Z,18.22
2022-09-26T16:56:27.658Z,18.35
2022-09-26T16:58:58.337Z,18.30
2022-09-26T17:01:25.563Z,18.33
2022-09-26T17:03:52.410Z,18.04
2022-09-26T17:06:19.152Z,18.08
2022-09-26T17:08:46.025Z,18.00
2022-09-26T17:11:15.486Z,17.92
2022-09-26T17:13:42.372Z,18.00
2022-09-26T17:16:09.930Z,17.59
2022-09-26T17:18:37.441Z,17.91
2022-09-26T17:21:04.447Z,17.25
2022-09-26T17:23:40.511Z,17.85
2022-09-26T17:26:16.530Z,17.46
2022-09-26T17:28:43.504Z,17.20
2022-09-26T17:31:15.111Z,17.61
2022-09-26T17:33:42.569Z,17.84
2022-09-26T17:36:17.189Z,17.55
2022-09-26T17:38:44.065Z,17.87
2022-09-26T17:41:10.905Z,17.90
2022-09-26T17:43:37.979Z,17.92
2022-09-26T17:46:05.111Z,17.81
2022-09-26T17:48:31.960Z,17.74
2022-09-26T17:51:01.956Z,17.58
2022-09-26T17:53:37.500Z,17.95
2022-09-26T17:56:05.182Z,17.98
2022-09-26T17:58:35.915Z,18.36
2022-09-26T18:01:03.838Z,18.61
2022-09-26T18:03:34.237Z,18.27
2022-09-26T18:06:02.379Z,17.98
2022-09-26T18:08:37.913Z,17.90
2022-09-26T18:11:07.101Z,18.30
2022-09-26T18:13:38.692Z,18.01
2022-09-26T18:16:05.879Z,17.67
2022-09-26T18:18:33.560Z,18.06
2022-09-26T18:21:01.258Z,17.86
2022-09-26T18:23:36.404Z,18.22
2022-09-26T18:26:03.915Z,18.41
2022-09-26T18:28:31.004Z,18.44
2022-09-26T18:30:59.029Z,18.25
2022-09-26T18:33:26.255Z,18.39
2022-09-26T18:35:53.070Z,18.39
2022-09-26T18:38:19.907Z,18.60
2022-09-26T18:40:51.302Z,19.01
2022-09-26T18:43:21.976Z,19.20
2022-09-26T18:45:49.433Z,19.47
2022-09-26T18:48:26.843Z,19.28
2022-09-26T18:50:54.427Z,19.28
2022-09-26T18:53:23.205Z,19.11
2022-09-26T18:55:50.443Z,18.78
2022-09-26T18:58:18.735Z,18.89
2022-09-26T19:00:45.489Z,18.85
2022-09-26T19:03:12.384Z,18.85
2022-09-26T19:05:39.308Z,18.79
2022-09-26T19:08:06.362Z,18.90
2022-09-26T19:10:33.452Z,18.93
2022-09-26T19:13:00.196Z,18.80
2022-09-26T19:15:27.100Z,19.00
2022-09-26T19:17:53.936Z,19.15
2022-09-26T19:20:20.730Z,19.46
2022-09-26T19:22:47.647Z,19.59
2022-09-26T19:25:14.557Z,19.66
2022-09-26T19:27:49.561Z,19.87
2022-09-26T19:30:21.306Z,20.04
2022-09-26T19:32:50.548Z,19.78
2022-09-26T19:35:28.466Z,19.85
2022-09-26T19:37:55.303Z,19.72
2022-09-26T19:40:23.358Z,19.84
2022-09-26T19:42:50.276Z,19.73
2022-09-26T19:45:18.146Z,19.91
2022-09-26T19:47:46.906Z,19.91
2022-09-26T19:50:19.701Z,19.96
2022-09-26T19:52:47.154Z,20.13
2022-09-26T19:55:22.903Z,20.48
2022-09-26T19:57:50.051Z,20.20
2022-09-26T20:00:17.289Z,20.61
2022-09-26T20:02:44.555Z,20.42
2022-09-26T20:05:21.528Z,20.75
2022-09-26T20:07:48.607Z,20.72
2022-09-26T20:10:18.674Z,20.51
2022-09-26T20:12:46.780Z,21.64
2022-09-26T20:15:15.223Z,21.94
2022-09-26T20:17:44.653Z,21.56
2022-09-26T20:20:23.243Z,21.50
2022-09-26T20:22:51.886Z,21.86
2022-09-26T20:25:27.105Z,21.63
2022-09-26T20:27:55.153Z,21.50
2022-09-26T20:30:22.289Z,21.59
2022-09-26T20:32:49.078Z,21.18
2022-09-26T20:35:15.914Z,21.34
2022-09-26T20:37:44.117Z,21.28
2022-09-26T20:40:18.617Z,21.28
2022-09-26T20:42:48.993Z,21.50
2022-09-26T20:45:22.906Z,21.04
2022-09-26T20:47:49.756Z,21.36
2022-09-26T20:50:19.391Z,21.31
2022-09-26T20:52:46.438Z,21.16
2022-09-26T20:55:18.895Z,21.04
2022-09-26T20:57:46.057Z,21.31
2022-09-26T21:00:17.532Z,21.03
2022-09-26T21:02:47.052Z,21.13
2022-09-26T21:05:25.261Z,21.22
2022-09-26T21:07:53.288Z,21.11
2022-09-26T21:10:21.752Z,21.21
2022-09-26T21:12:48.566Z,21.32
2022-09-26T21:15:15.478Z,21.48
2022-09-26T21:17:43.068Z,21.48
2022-09-26T21:20:33.752Z,21.55
2022-09-26T21:23:02.061Z,21.36
2022-09-26T21:25:32.025Z,21.30
2022-09-26T21:28:37.294Z,21.74
2022-09-26T21:31:06.056Z,21.60
2022-09-26T21:33:32.799Z,21.83
2022-09-26T21:35:59.736Z,21.59
2022-09-26T21:38:26.476Z,21.90
2022-09-26T21:40:59.573Z,22.36
2022-09-26T21:43:31.398Z,22.26
2022-09-26T21:45:58.244Z,22.53
2022-09-26T21:48:25.162Z,22.10
2022-09-26T21:50:58.049Z,22.19
2022-09-26T21:53:39.273Z,22.88
2022-09-26T21:56:16.663Z,23.03
2022-09-26T21:58:45.105Z,23.32
2022-09-26T22:01:12.169Z,23.78
2022-09-26T22:03:39.041Z,23.11
2022-09-26T22:06:07.758Z,23.12
2022-09-26T22:08:34.508Z,23.14
2022-09-26T22:11:01.414Z,22.76
2022-09-26T22:13:28.208Z,22.42
2022-09-26T22:15:55.127Z,22.56
2022-09-26T22:18:22.098Z,22.72
2022-09-26T22:20:55.179Z,23.17
2022-09-26T22:23:22.083Z,22.88
2022-09-26T22:25:50.202Z,22.90
2022-09-26T22:28:17.973Z,22.95
2022-09-26T22:30:44.802Z,22.92
2022-09-26T22:33:11.629Z,22.58
2022-09-26T22:35:38.497Z,22.67
2022-09-26T22:38:05.319Z,22.67
2022-09-26T22:40:32.137Z,22.83
2022-09-26T22:42:59.017Z,22.85
2022-09-26T22:45:25.832Z,22.58
2022-09-26T22:47:52.627Z,22.77
2022-09-26T22:50:19.479Z,22.93
2022-09-26T22:52:46.243Z,23.02
2022-09-26T22:55:13.156Z,23.20
2022-09-26T22:57:40.093Z,23.81
2022-09-26T23:00:07.637Z,24.13
2022-09-26T23:02:34.593Z,24.10
2022-09-26T23:05:01.548Z,24.37
2022-09-26T23:07:28.357Z,24.10
2022-09-26T23:09:55.193Z,24.07
2022-09-26T23:12:22.148Z,23.77
2022-09-26T23:14:49.020Z,23.79
2022-09-26T23:17:16.573Z,23.78
2022-09-26T23:19:43.449Z,23.84
2022-09-26T23:22:10.234Z,23.93
2022-09-26T23:24:37.325Z,24.02
2022-09-26T23:27:04.367Z,23.66
2022-09-26T23:29:31.224Z,23.84
2022-09-26T23:31:58.067Z,23.41
2022-09-26T23:34:25.007Z,24.21
2022-09-26T23:36:51.770Z,25.11
2022-09-26T23:39:18.564Z,24.39
2022-09-26T23:41:45.385Z,24.26
2022-09-26T23:44:12.217Z,24.76
2022-09-26T23:46:39.155Z,25.07
2022-09-26T23:49:06.092Z,24.25
2022-09-26T23:51:32.909Z,24.07
2022-09-26T23:53:59.692Z,24.54
2022-09-26T23:56:26.592Z,24.50
2022-09-26T23:58:56.233Z,24.14
